sensor_id;sensor_type;location;lat;lon;timestamp;temperature;humidity
2973;DHT22;1496;51.404;7.232;2023-04-24T00:01:44;10.50;1.00
2973;DHT22;1496;51.404;7.232;2023-04-24T00:04:10;10.50;1.00
2973;DHT22;1496;51.404;7.232;2023-04-24T00:06:40;10.40;1.00
2973;DHT22;1496;51.404;7.232;2023-04-24T00:09:09;10.30;1.00
2973;DHT22;1496;51.404;7.232;2023-04-24T00:11:36;10.20;1.00
2973;DHT22;1496;51.404;7.232;2023-04-24T00:14:03;10.20;1.00
2973;DHT22;1496;51.404;7.232;2023-04-24T00:16:29;10.20;1.00
2973;DHT22;1496;51.404;7.232;2023-04-24T00:18:55;10.10;1.00
2973;DHT22;1496;51.404;7.232;2023-04-24T00:21:23;10.10;1.00
2973;DHT22;1496;51.404;7.232;2023-04-24T00:23:52;10.10;1.00
2973;DHT22;1496;51.404;7.232;2023-04-24T00:26:19;10.10;1.00
2973;DHT22;1496;51.404;7.232;2023-04-24T00:28:46;10.00;1.00
2973;DHT22;1496;51.404;7.232;2023-04-24T00:31:13;10.00;1.00
2973;DHT22;1496;51.404;7.232;2023-04-24T00:33:40;9.90;1.00
2973;DHT22;1496;51.404;7.232;2023-04-24T00:36:07;10.00;1.00
2973;DHT22;1496;51.404;7.232;2023-04-24T00:38:33;9.90;1.00
2973;DHT22;1496;51.404;7.232;2023-04-24T00:40:59;9.90;1.00
2973;DHT22;1496;51.404;7.232;2023-04-24T00:43:27;9.90;1.00
2973;DHT22;1496;51.404;7.232;2023-04-24T00:45:54;9.90;1.00
2973;DHT22;1496;51.404;7.232;2023-04-24T00:48:21;9.90;1.00
2973;DHT22;1496;51.404;7.232;2023-04-24T00:50:50;9.80;1.00
2973;DHT22;1496;51.404;7.232;2023-04-24T00:53:16;9.80;1.00
2973;DHT22;1496;51.404;7.232;2023-04-24T00:55:43;9.80;1.00
2973;DHT22;1496;51.404;7.232;2023-04-24T00:58:10;9.80;1.00
2973;DHT22;1496;51.404;7.232;2023-04-24T01:00:37;9.80;1.00
2973;DHT22;1496;51.404;7.232;2023-04-24T01:03:05;9.80;1.00
2973;DHT22;1496;51.404;7.232;2023-04-24T01:05:33;9.70;1.00
2973;DHT22;1496;51.404;7.232;2023-04-24T01:08:04;9.70;1.00
2973;DHT22;1496;51.404;7.232;2023-04-24T01:10:33;9.70;1.00
2973;DHT22;1496;51.404;7.232;2023-04-24T01:13:01;9.70;1.00
2973;DHT22;1496;51.404;7.232;2023-04-24T01:15:28;9.70;1.00
2973;DHT22;1496;51.404;7.232;2023-04-24T01:17:54;9.70;1.00
2973;DHT22;1496;51.404;7.232;2023-04-24T01:20:22;9.80;1.00
2973;DHT22;1496;51.404;7.232;2023-04-24T01:22:55;9.80;1.00
2973;DHT22;1496;51.404;7.232;2023-04-24T01:25:24;9.80;1.00
2973;DHT22;1496;51.404;7.232;2023-04-24T01:27:58;9.80;1.00
2973;DHT22;1496;51.404;7.232;2023-04-24T01:30:24;9.80;1.00
2973;DHT22;1496;51.404;7.232;2023-04-24T01:32:55;9.80;1.00
2973;DHT22;1496;51.404;7.232;2023-04-24T01:35:24;9.80;1.00
2973;DHT22;1496;51.404;7.232;2023-04-24T01:37:53;9.90;1.00
2973;DHT22;1496;51.404;7.232;2023-04-24T01:40:20;9.80;1.00
2973;DHT22;1496;51.404;7.232;2023-04-24T01:42:48;9.80;1.00
2973;DHT22;1496;51.404;7.232;2023-04-24T01:45:15;9.80;1.00
2973;DHT22;1496;51.404;7.232;2023-04-24T01:47:43;9.80;1.00
2973;DHT22;1496;51.404;7.232;2023-04-24T01:50:14;9.80;1.00
2973;DHT22;1496;51.404;7.232;2023-04-24T01:52:42;9.70;1.00
2973;DHT22;1496;51.404;7.232;2023-04-24T01:55:11;9.70;1.00
2973;DHT22;1496;51.404;7.232;2023-04-24T01:57:39;9.70;1.00
2973;DHT22;1496;51.404;7.232;2023-04-24T02:00:07;9.70;1.00
2973;DHT22;1496;51.404;7.232;2023-04-24T02:02:41;9.60;1.00
2973;DHT22;1496;51.404;7.232;2023-04-24T02:05:08;9.50;1.00
2973;DHT22;1496;51.404;7.232;2023-04-24T02:07:37;9.50;1.00
2973;DHT22;1496;51.404;7.232;2023-04-24T02:10:04;9.50;1.00
2973;DHT22;1496;51.404;7.232;2023-04-24T02:12:31;9.40;1.00
2973;DHT22;1496;51.404;7.232;2023-04-24T02:14:58;9.30;1.00
2973;DHT22;1496;51.404;7.232;2023-04-24T02:17:26;9.20;1.00
2973;DHT22;1496;51.404;7.232;2023-04-24T02:19:52;9.10;1.00
2973;DHT22;1496;51.404;7.232;2023-04-24T02:22:19;9.00;1.00
2973;DHT22;1496;51.404;7.232;2023-04-24T02:24:46;9.00;1.00
2973;DHT22;1496;51.404;7.232;2023-04-24T02:27:15;8.90;1.00
2973;DHT22;1496;51.404;7.232;2023-04-24T02:29:43;8.80;1.00
2973;DHT22;1496;51.404;7.232;2023-04-24T02:32:11;8.80;1.00
2973;DHT22;1496;51.404;7.232;2023-04-24T02:34:39;8.70;1.00
2973;DHT22;1496;51.404;7.232;2023-04-24T02:37:06;8.70;1.00
2973;DHT22;1496;51.404;7.232;2023-04-24T02:39:33;8.60;1.00
2973;DHT22;1496;51.404;7.232;2023-04-24T02:41:59;8.60;1.00
2973;DHT22;1496;51.404;7.232;2023-04-24T02:44:26;8.60;1.00
2973;DHT22;1496;51.404;7.232;2023-04-24T02:46:53;8.60;1.00
2973;DHT22;1496;51.404;7.232;2023-04-24T02:49:21;8.70;1.00
2973;DHT22;1496;51.404;7.232;2023-04-24T02:51:49;8.70;1.00
2973;DHT22;1496;51.404;7.232;2023-04-24T02:54:15;8.70;1.00
2973;DHT22;1496;51.404;7.232;2023-04-24T02:56:41;8.70;1.00
2973;DHT22;1496;51.404;7.232;2023-04-24T02:59:09;8.80;1.00
2973;DHT22;1496;51.404;7.232;2023-04-24T03:01:37;8.80;1.00
2973;DHT22;1496;51.404;7.232;2023-04-24T03:04:03;8.80;1.00
2973;DHT22;1496;51.404;7.232;2023-04-24T03:06:31;8.80;1.00
2973;DHT22;1496;51.404;7.232;2023-04-24T03:08:58;8.80;1.00
2973;DHT22;1496;51.404;7.232;2023-04-24T03:11:25;8.80;1.00
2973;DHT22;1496;51.404;7.232;2023-04-24T03:13:53;8.90;1.00
2973;DHT22;1496;51.404;7.232;2023-04-24T03:16:20;8.90;1.00
2973;DHT22;1496;51.404;7.232;2023-04-24T03:18:46;8.90;1.00
2973;DHT22;1496;51.404;7.232;2023-04-24T03:21:15;8.90;1.00
2973;DHT22;1496;51.404;7.232;2023-04-24T03:23:42;8.90;1.00
2973;DHT22;1496;51.404;7.232;2023-04-24T03:26:09;8.90;1.00
2973;DHT22;1496;51.404;7.232;2023-04-24T03:28:42;8.80;1.00
2973;DHT22;1496;51.404;7.232;2023-04-24T03:31:10;8.90;1.00
2973;DHT22;1496;51.404;7.232;2023-04-24T03:33:37;8.80;1.00
2973;DHT22;1496;51.404;7.232;2023-04-24T03:36:04;8.80;1.00
2973;DHT22;1496;51.404;7.232;2023-04-24T03:38:40;8.80;1.00
2973;DHT22;1496;51.404;7.232;2023-04-24T03:41:25;8.90;1.00
2973;DHT22;1496;51.404;7.232;2023-04-24T03:43:56;8.90;1.00
2973;DHT22;1496;51.404;7.232;2023-04-24T03:46:23;8.90;1.00
2973;DHT22;1496;51.404;7.232;2023-04-24T03:48:54;8.90;1.00
2973;DHT22;1496;51.404;7.232;2023-04-24T03:51:26;8.90;1.00
2973;DHT22;1496;51.404;7.232;2023-04-24T03:53:57;8.90;1.00
2973;DHT22;1496;51.404;7.232;2023-04-24T03:56:27;8.90;1.00
2973;DHT22;1496;51.404;7.232;2023-04-24T03:58:54;8.90;1.00
2973;DHT22;1496;51.404;7.232;2023-04-24T04:01:22;8.90;1.00
2973;DHT22;1496;51.404;7.232;2023-04-24T04:04:04;8.90;1.00
2973;DHT22;1496;51.404;7.232;2023-04-24T04:06:31;8.90;1.00
2973;DHT22;1496;51.404;7.232;2023-04-24T04:09:00;8.90;1.00
2973;DHT22;1496;51.404;7.232;2023-04-24T04:11:27;8.90;1.00
2973;DHT22;1496;51.404;7.232;2023-04-24T04:13:55;8.80;1.00
2973;DHT22;1496;51.404;7.232;2023-04-24T04:16:23;8.90;1.00
2973;DHT22;1496;51.404;7.232;2023-04-24T04:18:55;8.80;1.00
2973;DHT22;1496;51.404;7.232;2023-04-24T04:21:22;8.80;1.00
2973;DHT22;1496;51.404;7.232;2023-04-24T04:23:53;8.90;1.00
2973;DHT22;1496;51.404;7.232;2023-04-24T04:26:27;9.00;1.00
2973;DHT22;1496;51.404;7.232;2023-04-24T04:29:02;9.00;1.00
2973;DHT22;1496;51.404;7.232;2023-04-24T04:31:33;8.90;1.00
2973;DHT22;1496;51.404;7.232;2023-04-24T04:34:04;8.90;1.00
2973;DHT22;1496;51.404;7.232;2023-04-24T04:36:33;8.90;1.00
2973;DHT22;1496;51.404;7.232;2023-04-24T04:39:16;8.90;1.00
2973;DHT22;1496;51.404;7.232;2023-04-24T04:42:05;8.90;1.00
2973;DHT22;1496;51.404;7.232;2023-04-24T04:44:43;8.90;1.00
2973;DHT22;1496;51.404;7.232;2023-04-24T04:47:17;8.90;1.00
2973;DHT22;1496;51.404;7.232;2023-04-24T04:49:44;8.90;1.00
2973;DHT22;1496;51.404;7.232;2023-04-24T04:52:22;8.90;1.00
2973;DHT22;1496;51.404;7.232;2023-04-24T04:54:57;8.90;1.00
2973;DHT22;1496;51.404;7.232;2023-04-24T04:57:37;8.90;1.00
2973;DHT22;1496;51.404;7.232;2023-04-24T05:00:05;8.90;1.00
2973;DHT22;1496;51.404;7.232;2023-04-24T05:02:42;8.90;1.00
2973;DHT22;1496;51.404;7.232;2023-04-24T05:05:09;8.90;1.00
2973;DHT22;1496;51.404;7.232;2023-04-24T05:07:37;8.80;1.00
2973;DHT22;1496;51.404;7.232;2023-04-24T05:10:04;8.90;1.00
2973;DHT22;1496;51.404;7.232;2023-04-24T05:12:31;9.00;1.00
2973;DHT22;1496;51.404;7.232;2023-04-24T05:14:58;9.00;1.00
2973;DHT22;1496;51.404;7.232;2023-04-24T05:17:26;9.00;1.00
2973;DHT22;1496;51.404;7.232;2023-04-24T05:19:55;9.00;1.00
2973;DHT22;1496;51.404;7.232;2023-04-24T05:22:22;9.00;1.00
2973;DHT22;1496;51.404;7.232;2023-04-24T05:24:51;9.10;1.00
2973;DHT22;1496;51.404;7.232;2023-04-24T05:27:34;9.00;1.00
2973;DHT22;1496;51.404;7.232;2023-04-24T05:30:04;9.00;1.00
2973;DHT22;1496;51.404;7.232;2023-04-24T05:32:32;8.90;1.00
2973;DHT22;1496;51.404;7.232;2023-04-24T05:34:58;9.00;1.00
2973;DHT22;1496;51.404;7.232;2023-04-24T05:37:27;8.90;1.00
2973;DHT22;1496;51.404;7.232;2023-04-24T05:39:55;8.80;10.00
2973;DHT22;1496;51.404;7.232;2023-04-24T05:42:22;8.70;28.40
2973;DHT22;1496;51.404;7.232;2023-04-24T05:44:50;8.70;52.60
2973;DHT22;1496;51.404;7.232;2023-04-24T05:47:17;8.70;96.70
2973;DHT22;1496;51.404;7.232;2023-04-24T05:49:44;8.70;99.90
2973;DHT22;1496;51.404;7.232;2023-04-24T05:52:11;8.80;99.90
2973;DHT22;1496;51.404;7.232;2023-04-24T05:54:39;8.80;99.90
2973;DHT22;1496;51.404;7.232;2023-04-24T05:57:08;8.70;99.90
2973;DHT22;1496;51.404;7.232;2023-04-24T05:59:48;8.60;99.90
2973;DHT22;1496;51.404;7.232;2023-04-24T06:02:19;8.70;99.90
2973;DHT22;1496;51.404;7.232;2023-04-24T06:04:47;8.70;99.90
2973;DHT22;1496;51.404;7.232;2023-04-24T06:07:14;8.60;99.90
2973;DHT22;1496;51.404;7.232;2023-04-24T06:09:43;8.60;99.90
2973;DHT22;1496;51.404;7.232;2023-04-24T06:12:11;8.60;99.90
2973;DHT22;1496;51.404;7.232;2023-04-24T06:14:56;8.60;99.90
2973;DHT22;1496;51.404;7.232;2023-04-24T06:17:32;8.60;99.90
2973;DHT22;1496;51.404;7.232;2023-04-24T06:20:02;8.50;99.90
2973;DHT22;1496;51.404;7.232;2023-04-24T06:22:32;8.40;99.90
2973;DHT22;1496;51.404;7.232;2023-04-24T06:24:59;8.50;99.90
2973;DHT22;1496;51.404;7.232;2023-04-24T06:27:27;8.40;99.90
2973;DHT22;1496;51.404;7.232;2023-04-24T06:29:53;8.50;99.90
2973;DHT22;1496;51.404;7.232;2023-04-24T06:32:22;8.40;99.90
2973;DHT22;1496;51.404;7.232;2023-04-24T06:34:51;8.30;99.90
2973;DHT22;1496;51.404;7.232;2023-04-24T06:37:20;8.40;99.90
2973;DHT22;1496;51.404;7.232;2023-04-24T06:39:48;8.40;99.90
2973;DHT22;1496;51.404;7.232;2023-04-24T06:42:14;8.60;99.90
2973;DHT22;1496;51.404;7.232;2023-04-24T06:44:43;8.50;99.90
2973;DHT22;1496;51.404;7.232;2023-04-24T06:47:11;8.60;99.90
2973;DHT22;1496;51.404;7.232;2023-04-24T06:49:41;8.50;99.90
2973;DHT22;1496;51.404;7.232;2023-04-24T06:52:07;8.50;99.90
2973;DHT22;1496;51.404;7.232;2023-04-24T06:54:34;8.50;99.90
2973;DHT22;1496;51.404;7.232;2023-04-24T06:57:02;8.40;99.90
2973;DHT22;1496;51.404;7.232;2023-04-24T06:59:30;8.40;99.90
2973;DHT22;1496;51.404;7.232;2023-04-24T07:01:57;8.50;99.90
2973;DHT22;1496;51.404;7.232;2023-04-24T07:04:23;8.70;99.90
2973;DHT22;1496;51.404;7.232;2023-04-24T07:06:51;8.80;99.90
2973;DHT22;1496;51.404;7.232;2023-04-24T07:09:20;8.70;99.90
2973;DHT22;1496;51.404;7.232;2023-04-24T07:11:48;8.70;99.90
2973;DHT22;1496;51.404;7.232;2023-04-24T07:14:14;8.60;99.90
2973;DHT22;1496;51.404;7.232;2023-04-24T07:16:43;8.50;99.90
2973;DHT22;1496;51.404;7.232;2023-04-24T07:19:09;8.50;99.90
2973;DHT22;1496;51.404;7.232;2023-04-24T07:21:40;8.40;99.90
2973;DHT22;1496;51.404;7.232;2023-04-24T07:24:07;8.40;99.90
2973;DHT22;1496;51.404;7.232;2023-04-24T07:26:38;8.30;99.90
2973;DHT22;1496;51.404;7.232;2023-04-24T07:29:07;8.30;1.00
2973;DHT22;1496;51.404;7.232;2023-04-24T07:31:35;8.20;1.00
2973;DHT22;1496;51.404;7.232;2023-04-24T07:34:02;8.20;1.00
2973;DHT22;1496;51.404;7.232;2023-04-24T07:36:30;8.20;1.00
2973;DHT22;1496;51.404;7.232;2023-04-24T07:38:58;8.10;1.00
2973;DHT22;1496;51.404;7.232;2023-04-24T07:41:24;8.10;1.00
2973;DHT22;1496;51.404;7.232;2023-04-24T07:43:51;8.20;1.00
2973;DHT22;1496;51.404;7.232;2023-04-24T07:46:22;8.30;1.00
2973;DHT22;1496;51.404;7.232;2023-04-24T07:48:51;8.40;1.00
2973;DHT22;1496;51.404;7.232;2023-04-24T07:51:18;8.30;99.90
2973;DHT22;1496;51.404;7.232;2023-04-24T07:53:45;8.40;99.90
2973;DHT22;1496;51.404;7.232;2023-04-24T07:56:12;8.30;99.90
2973;DHT22;1496;51.404;7.232;2023-04-24T07:58:38;8.30;99.90
2973;DHT22;1496;51.404;7.232;2023-04-24T08:01:05;8.20;99.90
2973;DHT22;1496;51.404;7.232;2023-04-24T08:03:32;8.10;99.90
2973;DHT22;1496;51.404;7.232;2023-04-24T08:06:00;8.10;1.00
2973;DHT22;1496;51.404;7.232;2023-04-24T08:08:26;8.10;1.00
2973;DHT22;1496;51.404;7.232;2023-04-24T08:10:53;8.10;1.00
2973;DHT22;1496;51.404;7.232;2023-04-24T08:13:21;8.10;1.00
2973;DHT22;1496;51.404;7.232;2023-04-24T08:15:48;8.40;1.00
2973;DHT22;1496;51.404;7.232;2023-04-24T08:18:17;8.30;1.00
2973;DHT22;1496;51.404;7.232;2023-04-24T08:20:44;8.30;99.90
2973;DHT22;1496;51.404;7.232;2023-04-24T08:23:11;8.30;1.00
2973;DHT22;1496;51.404;7.232;2023-04-24T08:25:40;8.10;99.90
2973;DHT22;1496;51.404;7.232;2023-04-24T08:28:09;8.00;99.90
2973;DHT22;1496;51.404;7.232;2023-04-24T08:30:38;8.00;99.90
2973;DHT22;1496;51.404;7.232;2023-04-24T08:33:05;8.00;99.90
2973;DHT22;1496;51.404;7.232;2023-04-24T08:35:32;7.90;1.00
2973;DHT22;1496;51.404;7.232;2023-04-24T08:37:59;7.90;1.00
2973;DHT22;1496;51.404;7.232;2023-04-24T08:40:34;7.90;1.00
2973;DHT22;1496;51.404;7.232;2023-04-24T08:43:01;7.80;1.00
2973;DHT22;1496;51.404;7.232;2023-04-24T08:45:29;7.70;1.00
2973;DHT22;1496;51.404;7.232;2023-04-24T08:47:58;7.80;1.00
2973;DHT22;1496;51.404;7.232;2023-04-24T08:50:26;7.80;99.90
2973;DHT22;1496;51.404;7.232;2023-04-24T08:52:52;7.70;29.20
2973;DHT22;1496;51.404;7.232;2023-04-24T08:55:20;7.80;99.90
2973;DHT22;1496;51.404;7.232;2023-04-24T08:57:53;7.80;1.00
2973;DHT22;1496;51.404;7.232;2023-04-24T09:00:21;7.60;99.90
2973;DHT22;1496;51.404;7.232;2023-04-24T09:02:50;7.50;1.00
2973;DHT22;1496;51.404;7.232;2023-04-24T09:05:17;7.70;99.90
2973;DHT22;1496;51.404;7.232;2023-04-24T09:07:55;7.60;99.90
2973;DHT22;1496;51.404;7.232;2023-04-24T09:10:24;7.60;1.00
2973;DHT22;1496;51.404;7.232;2023-04-24T09:12:52;7.60;1.00
2973;DHT22;1496;51.404;7.232;2023-04-24T09:15:19;7.70;99.90
2973;DHT22;1496;51.404;7.232;2023-04-24T09:17:47;7.70;99.90
2973;DHT22;1496;51.404;7.232;2023-04-24T09:20:17;7.80;1.00
2973;DHT22;1496;51.404;7.232;2023-04-24T09:22:45;7.90;1.00
2973;DHT22;1496;51.404;7.232;2023-04-24T09:25:12;7.90;99.90
2973;DHT22;1496;51.404;7.232;2023-04-24T09:27:45;7.90;1.00
2973;DHT22;1496;51.404;7.232;2023-04-24T09:30:12;8.00;99.90
2973;DHT22;1496;51.404;7.232;2023-04-24T09:32:40;7.90;1.00
2973;DHT22;1496;51.404;7.232;2023-04-24T09:35:13;8.00;20.50
2973;DHT22;1496;51.404;7.232;2023-04-24T09:37:46;8.00;99.90
2973;DHT22;1496;51.404;7.232;2023-04-24T09:40:16;8.00;99.90
2973;DHT22;1496;51.404;7.232;2023-04-24T09:43:02;8.00;99.90
2973;DHT22;1496;51.404;7.232;2023-04-24T09:45:35;7.90;99.90
2973;DHT22;1496;51.404;7.232;2023-04-24T09:48:04;7.80;99.90
2973;DHT22;1496;51.404;7.232;2023-04-24T09:50:34;7.90;99.90
2973;DHT22;1496;51.404;7.232;2023-04-24T09:53:03;7.80;99.90
2973;DHT22;1496;51.404;7.232;2023-04-24T09:55:30;7.90;99.90
2973;DHT22;1496;51.404;7.232;2023-04-24T09:58:01;7.80;99.90
2973;DHT22;1496;51.404;7.232;2023-04-24T10:00:32;7.80;99.90
2973;DHT22;1496;51.404;7.232;2023-04-24T10:03:00;7.80;99.90
2973;DHT22;1496;51.404;7.232;2023-04-24T10:05:33;7.60;99.90
2973;DHT22;1496;51.404;7.232;2023-04-24T10:08:03;7.60;99.90
2973;DHT22;1496;51.404;7.232;2023-04-24T10:10:32;7.50;99.90
2973;DHT22;1496;51.404;7.232;2023-04-24T10:12:59;7.50;99.90
2973;DHT22;1496;51.404;7.232;2023-04-24T10:15:30;7.50;99.90
2973;DHT22;1496;51.404;7.232;2023-04-24T10:17:58;7.60;99.90
2973;DHT22;1496;51.404;7.232;2023-04-24T10:20:28;7.50;99.90
2973;DHT22;1496;51.404;7.232;2023-04-24T10:23:00;7.50;99.90
2973;DHT22;1496;51.404;7.232;2023-04-24T10:25:31;7.50;99.90
2973;DHT22;1496;51.404;7.232;2023-04-24T10:27:59;7.50;99.90
2973;DHT22;1496;51.404;7.232;2023-04-24T10:30:28;7.40;99.90
2973;DHT22;1496;51.404;7.232;2023-04-24T10:32:55;7.50;99.90
2973;DHT22;1496;51.404;7.232;2023-04-24T10:35:23;7.50;99.90
2973;DHT22;1496;51.404;7.232;2023-04-24T10:38:06;7.50;99.90
2973;DHT22;1496;51.404;7.232;2023-04-24T10:40:35;7.50;99.90
2973;DHT22;1496;51.404;7.232;2023-04-24T10:43:06;7.60;99.90
2973;DHT22;1496;51.404;7.232;2023-04-24T10:45:35;7.60;99.90
2973;DHT22;1496;51.404;7.232;2023-04-24T10:48:07;7.70;99.90
2973;DHT22;1496;51.404;7.232;2023-04-24T10:53:20;7.60;99.90
2973;DHT22;1496;51.404;7.232;2023-04-24T10:55:47;7.70;99.90
2973;DHT22;1496;51.404;7.232;2023-04-24T10:58:15;7.70;99.90
2973;DHT22;1496;51.404;7.232;2023-04-24T11:00:43;7.70;99.90
2973;DHT22;1496;51.404;7.232;2023-04-24T11:03:38;7.80;99.90
2973;DHT22;1496;51.404;7.232;2023-04-24T11:06:08;7.80;99.90
2973;DHT22;1496;51.404;7.232;2023-04-24T11:08:43;7.70;99.90
2973;DHT22;1496;51.404;7.232;2023-04-24T11:11:16;7.80;99.90
2973;DHT22;1496;51.404;7.232;2023-04-24T11:16:31;7.70;99.90
2973;DHT22;1496;51.404;7.232;2023-04-24T11:19:09;7.70;99.90
2973;DHT22;1496;51.404;7.232;2023-04-24T11:27:11;7.90;99.90
2973;DHT22;1496;51.404;7.232;2023-04-24T11:29:45;8.00;99.90
2973;DHT22;1496;51.404;7.232;2023-04-24T11:35:01;8.00;99.90
2973;DHT22;1496;51.404;7.232;2023-04-24T11:37:43;7.90;99.90
2973;DHT22;1496;51.404;7.232;2023-04-24T11:40:13;8.00;99.90
2973;DHT22;1496;51.404;7.232;2023-04-24T11:42:44;8.20;99.90
2973;DHT22;1496;51.404;7.232;2023-04-24T11:45:13;8.40;99.90
2973;DHT22;1496;51.404;7.232;2023-04-24T11:47:43;8.50;99.90
2973;DHT22;1496;51.404;7.232;2023-04-24T11:50:16;8.40;99.90
2973;DHT22;1496;51.404;7.232;2023-04-24T11:52:48;8.30;99.90
2973;DHT22;1496;51.404;7.232;2023-04-24T11:57:49;8.10;99.90
2973;DHT22;1496;51.404;7.232;2023-04-24T12:00:28;8.10;99.90
2973;DHT22;1496;51.404;7.232;2023-04-24T12:03:09;8.10;99.90
2973;DHT22;1496;51.404;7.232;2023-04-24T12:05:38;8.00;99.90
2973;DHT22;1496;51.404;7.232;2023-04-24T12:08:07;7.90;99.90
2973;DHT22;1496;51.404;7.232;2023-04-24T12:10:34;7.90;99.90
2973;DHT22;1496;51.404;7.232;2023-04-24T12:13:01;7.80;99.90
2973;DHT22;1496;51.404;7.232;2023-04-24T12:15:27;7.80;99.90
2973;DHT22;1496;51.404;7.232;2023-04-24T12:17:56;7.90;99.90
2973;DHT22;1496;51.404;7.232;2023-04-24T12:20:31;7.90;99.90
2973;DHT22;1496;51.404;7.232;2023-04-24T12:23:01;8.00;99.90
2973;DHT22;1496;51.404;7.232;2023-04-24T12:25:32;8.30;99.90
2973;DHT22;1496;51.404;7.232;2023-04-24T12:28:08;8.40;99.90
2973;DHT22;1496;51.404;7.232;2023-04-24T12:30:50;8.60;99.90
2973;DHT22;1496;51.404;7.232;2023-04-24T12:33:22;8.70;99.90
2973;DHT22;1496;51.404;7.232;2023-04-24T12:35:51;8.70;1.00
2973;DHT22;1496;51.404;7.232;2023-04-24T12:38:22;8.80;9.50
2973;DHT22;1496;51.404;7.232;2023-04-24T12:41:08;8.60;1.00
2973;DHT22;1496;51.404;7.232;2023-04-24T12:43:36;8.50;1.00
2973;DHT22;1496;51.404;7.232;2023-04-24T12:46:04;8.50;99.90
2973;DHT22;1496;51.404;7.232;2023-04-24T12:48:32;8.30;99.90
2973;DHT22;1496;51.404;7.232;2023-04-24T12:50:58;8.40;99.90
2973;DHT22;1496;51.404;7.232;2023-04-24T12:53:28;8.40;99.90
2973;DHT22;1496;51.404;7.232;2023-04-24T12:55:58;8.50;99.90
2973;DHT22;1496;51.404;7.232;2023-04-24T12:58:25;8.50;99.90
2973;DHT22;1496;51.404;7.232;2023-04-24T13:00:53;8.60;99.90
2973;DHT22;1496;51.404;7.232;2023-04-24T13:03:20;8.50;99.90
2973;DHT22;1496;51.404;7.232;2023-04-24T13:05:48;8.60;99.90
2973;DHT22;1496;51.404;7.232;2023-04-24T13:08:15;8.60;99.90
2973;DHT22;1496;51.404;7.232;2023-04-24T13:10:45;8.80;99.90
2973;DHT22;1496;51.404;7.232;2023-04-24T13:13:11;8.90;99.90
2973;DHT22;1496;51.404;7.232;2023-04-24T13:15:40;8.90;99.90
2973;DHT22;1496;51.404;7.232;2023-04-24T13:18:08;8.80;99.90
2973;DHT22;1496;51.404;7.232;2023-04-24T13:20:34;8.90;99.90
2973;DHT22;1496;51.404;7.232;2023-04-24T13:23:01;8.90;99.90
2973;DHT22;1496;51.404;7.232;2023-04-24T13:25:27;9.00;99.90
2973;DHT22;1496;51.404;7.232;2023-04-24T13:27:55;8.90;99.90
2973;DHT22;1496;51.404;7.232;2023-04-24T13:30:21;9.10;99.90
2973;DHT22;1496;51.404;7.232;2023-04-24T13:32:49;9.20;99.90
2973;DHT22;1496;51.404;7.232;2023-04-24T13:35:17;9.00;99.90
2973;DHT22;1496;51.404;7.232;2023-04-24T13:37:43;9.00;99.90
2973;DHT22;1496;51.404;7.232;2023-04-24T13:40:11;8.80;99.90
2973;DHT22;1496;51.404;7.232;2023-04-24T13:42:38;8.70;99.90
2973;DHT22;1496;51.404;7.232;2023-04-24T13:45:07;8.70;99.90
2973;DHT22;1496;51.404;7.232;2023-04-24T13:47:34;8.70;99.90
2973;DHT22;1496;51.404;7.232;2023-04-24T13:50:03;8.60;98.80
2973;DHT22;1496;51.404;7.232;2023-04-24T13:52:30;8.60;99.90
2973;DHT22;1496;51.404;7.232;2023-04-24T13:54:58;8.60;99.90
2973;DHT22;1496;51.404;7.232;2023-04-24T13:57:26;8.60;97.30
2973;DHT22;1496;51.404;7.232;2023-04-24T13:59:56;8.60;98.50
2973;DHT22;1496;51.404;7.232;2023-04-24T14:02:27;8.70;95.70
2973;DHT22;1496;51.404;7.232;2023-04-24T14:04:54;8.70;95.40
2973;DHT22;1496;51.404;7.232;2023-04-24T14:07:22;8.80;91.50
2973;DHT22;1496;51.404;7.232;2023-04-24T14:09:49;8.80;85.20
2973;DHT22;1496;51.404;7.232;2023-04-24T14:12:17;8.90;88.20
2973;DHT22;1496;51.404;7.232;2023-04-24T14:14:47;9.00;69.50
2973;DHT22;1496;51.404;7.232;2023-04-24T14:17:17;9.10;72.30
2973;DHT22;1496;51.404;7.232;2023-04-24T14:19:44;9.10;73.20
2973;DHT22;1496;51.404;7.232;2023-04-24T14:22:11;9.20;86.30
2973;DHT22;1496;51.404;7.232;2023-04-24T14:24:37;9.20;75.80
2973;DHT22;1496;51.404;7.232;2023-04-24T14:27:06;9.20;73.30
2973;DHT22;1496;51.404;7.232;2023-04-24T14:29:33;9.20;63.40
2973;DHT22;1496;51.404;7.232;2023-04-24T14:32:01;9.30;78.20
2973;DHT22;1496;51.404;7.232;2023-04-24T14:34:27;9.40;87.90
2973;DHT22;1496;51.404;7.232;2023-04-24T14:36:53;9.50;76.20
2973;DHT22;1496;51.404;7.232;2023-04-24T14:39:21;9.50;61.70
2973;DHT22;1496;51.404;7.232;2023-04-24T14:41:49;9.50;55.10
2973;DHT22;1496;51.404;7.232;2023-04-24T14:44:15;9.50;53.40
2973;DHT22;1496;51.404;7.232;2023-04-24T14:46:42;9.40;47.70
2973;DHT22;1496;51.404;7.232;2023-04-24T14:49:09;9.50;46.20
2973;DHT22;1496;51.404;7.232;2023-04-24T14:51:36;9.50;46.10
2973;DHT22;1496;51.404;7.232;2023-04-24T14:54:04;9.60;48.50
2973;DHT22;1496;51.404;7.232;2023-04-24T14:56:36;9.60;47.20
2973;DHT22;1496;51.404;7.232;2023-04-24T14:59:02;9.60;52.80
2973;DHT22;1496;51.404;7.232;2023-04-24T15:01:30;9.40;40.80
2973;DHT22;1496;51.404;7.232;2023-04-24T15:03:57;9.40;45.40
2973;DHT22;1496;51.404;7.232;2023-04-24T15:06:23;9.40;49.90
2973;DHT22;1496;51.404;7.232;2023-04-24T15:08:51;9.30;40.10
2973;DHT22;1496;51.404;7.232;2023-04-24T15:11:17;9.30;52.20
2973;DHT22;1496;51.404;7.232;2023-04-24T15:13:46;9.20;50.00
2973;DHT22;1496;51.404;7.232;2023-04-24T15:16:12;9.10;39.80
2973;DHT22;1496;51.404;7.232;2023-04-24T15:18:39;9.10;39.40
2973;DHT22;1496;51.404;7.232;2023-04-24T15:21:06;8.90;48.50
2973;DHT22;1496;51.404;7.232;2023-04-24T15:23:33;8.80;52.60
2973;DHT22;1496;51.404;7.232;2023-04-24T15:25:59;8.80;60.60
2973;DHT22;1496;51.404;7.232;2023-04-24T15:28:28;8.70;69.00
2973;DHT22;1496;51.404;7.232;2023-04-24T15:30:55;8.70;83.00
2973;DHT22;1496;51.404;7.232;2023-04-24T15:33:22;8.80;98.80
2973;DHT22;1496;51.404;7.232;2023-04-24T15:35:49;8.90;94.30
2973;DHT22;1496;51.404;7.232;2023-04-24T15:38:16;8.90;91.90
2973;DHT22;1496;51.404;7.232;2023-04-24T15:40:42;9.00;91.10
2973;DHT22;1496;51.404;7.232;2023-04-24T15:43:10;9.10;82.60
2973;DHT22;1496;51.404;7.232;2023-04-24T15:45:40;9.20;80.80
2973;DHT22;1496;51.404;7.232;2023-04-24T15:48:08;9.40;77.50
2973;DHT22;1496;51.404;7.232;2023-04-24T15:50:38;9.50;56.60
2973;DHT22;1496;51.404;7.232;2023-04-24T15:53:06;9.50;53.20
2973;DHT22;1496;51.404;7.232;2023-04-24T15:55:34;9.50;39.20
2973;DHT22;1496;51.404;7.232;2023-04-24T15:58:03;9.40;41.10
2973;DHT22;1496;51.404;7.232;2023-04-24T16:00:31;9.50;36.90
2973;DHT22;1496;51.404;7.232;2023-04-24T16:03:06;9.60;33.90
2973;DHT22;1496;51.404;7.232;2023-04-24T16:05:33;9.60;27.20
2973;DHT22;1496;51.404;7.232;2023-04-24T16:07:59;9.70;28.90
2973;DHT22;1496;51.404;7.232;2023-04-24T16:10:27;9.70;26.10
2973;DHT22;1496;51.404;7.232;2023-04-24T16:12:53;9.70;26.70
2973;DHT22;1496;51.404;7.232;2023-04-24T16:15:21;9.70;23.30
2973;DHT22;1496;51.404;7.232;2023-04-24T16:17:49;9.70;25.40
2973;DHT22;1496;51.404;7.232;2023-04-24T16:20:17;9.60;23.90
2973;DHT22;1496;51.404;7.232;2023-04-24T16:22:44;9.50;24.00
2973;DHT22;1496;51.404;7.232;2023-04-24T16:25:11;9.50;21.60
2973;DHT22;1496;51.404;7.232;2023-04-24T16:27:38;9.40;17.60
2973;DHT22;1496;51.404;7.232;2023-04-24T16:30:05;9.40;16.10
2973;DHT22;1496;51.404;7.232;2023-04-24T16:32:32;9.40;15.40
2973;DHT22;1496;51.404;7.232;2023-04-24T16:35:03;9.50;16.30
2973;DHT22;1496;51.404;7.232;2023-04-24T16:37:31;9.70;21.80
2973;DHT22;1496;51.404;7.232;2023-04-24T16:39:58;9.80;14.10
2973;DHT22;1496;51.404;7.232;2023-04-24T16:42:26;9.80;11.90
2973;DHT22;1496;51.404;7.232;2023-04-24T16:44:52;9.80;9.70
2973;DHT22;1496;51.404;7.232;2023-04-24T16:47:18;9.80;9.20
2973;DHT22;1496;51.404;7.232;2023-04-24T16:49:46;9.60;5.10
2973;DHT22;1496;51.404;7.232;2023-04-24T16:52:14;9.50;4.60